sensor_id;sensor_type;location;lat;lon;timestamp;P1;durP1;ratioP1;P2;durP2;ratioP2
5682;SDS011;2864;49.220;8.654;2022-07-23T00:00:42;9.33;;;7.50;;
5682;SDS011;2864;49.220;8.654;2022-07-23T00:03:08;11.83;;;7.80;;
5682;SDS011;2864;49.220;8.654;2022-07-23T00:05:34;8.57;;;6.87;;
5682;SDS011;2864;49.220;8.654;2022-07-23T00:08:00;9.20;;;7.67;;
5682;SDS011;2864;49.220;8.654;2022-07-23T00:10:26;8.10;;;7.20;;
5682;SDS011;2864;49.220;8.654;2022-07-23T00:12:52;9.33;;;7.57;;
5682;SDS011;2864;49.220;8.654;2022-07-23T00:15:18;11.37;;;7.90;;
5682;SDS011;2864;49.220;8.654;2022-07-23T00:17:44;10.43;;;7.70;;
5682;SDS011;2864;49.220;8.654;2022-07-23T00:20:10;9.87;;;8.87;;
5682;SDS011;2864;49.220;8.654;2022-07-23T00:22:37;11.20;;;7.50;;
5682;SDS011;2864;49.220;8.654;2022-07-23T00:25:11;8.53;;;7.73;;
5682;SDS011;2864;49.220;8.654;2022-07-23T00:27:37;9.83;;;8.27;;
5682;SDS011;2864;49.220;8.654;2022-07-23T00:30:03;8.57;;;7.63;;
5682;SDS011;2864;49.220;8.654;2022-07-23T00:32:29;10.07;;;7.80;;
5682;SDS011;2864;49.220;8.654;2022-07-23T00:34:55;10.97;;;7.97;;
5682;SDS011;2864;49.220;8.654;2022-07-23T00:37:21;12.53;;;7.80;;
5682;SDS011;2864;49.220;8.654;2022-07-23T00:39:47;10.47;;;7.93;;
5682;SDS011;2864;49.220;8.654;2022-07-23T00:42:13;12.30;;;8.30;;
5682;SDS011;2864;49.220;8.654;2022-07-23T00:44:39;9.30;;;8.13;;
5682;SDS011;2864;49.220;8.654;2022-07-23T00:47:05;12.73;;;8.23;;
5682;SDS011;2864;49.220;8.654;2022-07-23T00:49:31;10.90;;;8.57;;
5682;SDS011;2864;49.220;8.654;2022-07-23T00:51:58;10.27;;;8.50;;
5682;SDS011;2864;49.220;8.654;2022-07-23T00:54:26;10.70;;;8.43;;
5682;SDS011;2864;49.220;8.654;2022-07-23T00:56:53;10.37;;;8.67;;
5682;SDS011;2864;49.220;8.654;2022-07-23T00:59:19;14.07;;;9.10;;
5682;SDS011;2864;49.220;8.654;2022-07-23T01:01:45;12.03;;;9.30;;
5682;SDS011;2864;49.220;8.654;2022-07-23T01:04:13;11.77;;;9.50;;
5682;SDS011;2864;49.220;8.654;2022-07-23T01:06:40;10.93;;;9.53;;
5682;SDS011;2864;49.220;8.654;2022-07-23T01:09:06;13.17;;;10.07;;
5682;SDS011;2864;49.220;8.654;2022-07-23T01:11:36;14.03;;;9.47;;
5682;SDS011;2864;49.220;8.654;2022-07-23T01:14:15;10.83;;;9.50;;
5682;SDS011;2864;49.220;8.654;2022-07-23T01:16:42;11.70;;;9.10;;
5682;SDS011;2864;49.220;8.654;2022-07-23T01:19:09;10.80;;;9.70;;
5682;SDS011;2864;49.220;8.654;2022-07-23T01:21:36;9.97;;;8.87;;
5682;SDS011;2864;49.220;8.654;2022-07-23T01:24:06;15.43;;;9.20;;
5682;SDS011;2864;49.220;8.654;2022-07-23T01:26:32;13.97;;;9.63;;
5682;SDS011;2864;49.220;8.654;2022-07-23T01:28:58;9.50;;;8.50;;
5682;SDS011;2864;49.220;8.654;2022-07-23T01:31:24;9.77;;;8.67;;
5682;SDS011;2864;49.220;8.654;2022-07-23T01:33:50;11.83;;;8.50;;
5682;SDS011;2864;49.220;8.654;2022-07-23T01:36:16;12.60;;;8.07;;
5682;SDS011;2864;49.220;8.654;2022-07-23T01:38:42;10.23;;;7.37;;
5682;SDS011;2864;49.220;8.654;2022-07-23T01:41:08;11.70;;;8.03;;
5682;SDS011;2864;49.220;8.654;2022-07-23T01:43:34;8.40;;;7.50;;
5682;SDS011;2864;49.220;8.654;2022-07-23T01:46:00;9.00;;;7.57;;
5682;SDS011;2864;49.220;8.654;2022-07-23T01:48:25;10.47;;;7.63;;
5682;SDS011;2864;49.220;8.654;2022-07-23T01:50:51;9.67;;;7.60;;
5682;SDS011;2864;49.220;8.654;2022-07-23T01:53:17;9.00;;;7.00;;
5682;SDS011;2864;49.220;8.654;2022-07-23T01:55:43;10.53;;;7.20;;
5682;SDS011;2864;49.220;8.654;2022-07-23T01:58:09;11.93;;;7.40;;
5682;SDS011;2864;49.220;8.654;2022-07-23T02:00:36;11.07;;;7.00;;
5682;SDS011;2864;49.220;8.654;2022-07-23T02:03:02;11.10;;;7.40;;
5682;SDS011;2864;49.220;8.654;2022-07-23T02:05:28;8.40;;;7.03;;
5682;SDS011;2864;49.220;8.654;2022-07-23T02:07:55;8.10;;;7.00;;
5682;SDS011;2864;49.220;8.654;2022-07-23T02:10:21;8.80;;;7.03;;
5682;SDS011;2864;49.220;8.654;2022-07-23T02:12:47;8.67;;;7.13;;
5682;SDS011;2864;49.220;8.654;2022-07-23T02:15:13;9.60;;;7.17;;
5682;SDS011;2864;49.220;8.654;2022-07-23T02:17:39;10.23;;;6.87;;
5682;SDS011;2864;49.220;8.654;2022-07-23T02:20:06;8.27;;;7.40;;
5682;SDS011;2864;49.220;8.654;2022-07-23T02:22:32;10.97;;;7.93;;
5682;SDS011;2864;49.220;8.654;2022-07-23T02:24:58;9.20;;;7.37;;
5682;SDS011;2864;49.220;8.654;2022-07-23T02:27:24;11.83;;;7.33;;
5682;SDS011;2864;49.220;8.654;2022-07-23T02:29:50;10.97;;;7.73;;
5682;SDS011;2864;49.220;8.654;2022-07-23T02:32:17;9.93;;;7.50;;
5682;SDS011;2864;49.220;8.654;2022-07-23T02:34:43;8.07;;;6.67;;
5682;SDS011;2864;49.220;8.654;2022-07-23T02:37:09;11.00;;;7.27;;
5682;SDS011;2864;49.220;8.654;2022-07-23T02:39:35;7.43;;;6.60;;
5682;SDS011;2864;49.220;8.654;2022-07-23T02:42:01;8.53;;;6.70;;
5682;SDS011;2864;49.220;8.654;2022-07-23T02:44:27;8.60;;;6.90;;
5682;SDS011;2864;49.220;8.654;2022-07-23T02:46:53;8.33;;;6.67;;
5682;SDS011;2864;49.220;8.654;2022-07-23T02:49:19;10.07;;;6.60;;
5682;SDS011;2864;49.220;8.654;2022-07-23T02:51:45;9.40;;;6.20;;
5682;SDS011;2864;49.220;8.654;2022-07-23T02:54:11;11.83;;;7.30;;
5682;SDS011;2864;49.220;8.654;2022-07-23T02:56:37;7.63;;;6.80;;
5682;SDS011;2864;49.220;8.654;2022-07-23T02:59:03;9.20;;;7.20;;
5682;SDS011;2864;49.220;8.654;2022-07-23T03:01:29;10.40;;;7.13;;
5682;SDS011;2864;49.220;8.654;2022-07-23T03:03:54;9.57;;;7.10;;
5682;SDS011;2864;49.220;8.654;2022-07-23T03:06:20;8.47;;;7.00;;
5682;SDS011;2864;49.220;8.654;2022-07-23T03:08:46;8.67;;;7.00;;
5682;SDS011;2864;49.220;8.654;2022-07-23T03:11:12;11.63;;;7.97;;
5682;SDS011;2864;49.220;8.654;2022-07-23T03:13:38;9.73;;;6.90;;
5682;SDS011;2864;49.220;8.654;2022-07-23T03:16:05;8.43;;;7.23;;
5682;SDS011;2864;49.220;8.654;2022-07-23T03:18:31;8.07;;;7.27;;
5682;SDS011;2864;49.220;8.654;2022-07-23T03:20:57;10.27;;;7.30;;
5682;SDS011;2864;49.220;8.654;2022-07-23T03:23:23;8.00;;;6.90;;
5682;SDS011;2864;49.220;8.654;2022-07-23T03:25:49;8.97;;;7.33;;
5682;SDS011;2864;49.220;8.654;2022-07-23T03:28:15;8.60;;;7.30;;
5682;SDS011;2864;49.220;8.654;2022-07-23T03:30:44;9.37;;;7.10;;
5682;SDS011;2864;49.220;8.654;2022-07-23T03:33:14;10.20;;;7.30;;
5682;SDS011;2864;49.220;8.654;2022-07-23T03:35:44;9.53;;;7.40;;
5682;SDS011;2864;49.220;8.654;2022-07-23T03:38:11;8.73;;;7.37;;
5682;SDS011;2864;49.220;8.654;2022-07-23T03:40:37;10.03;;;7.23;;
5682;SDS011;2864;49.220;8.654;2022-07-23T03:43:03;11.20;;;7.40;;
5682;SDS011;2864;49.220;8.654;2022-07-23T03:45:29;9.57;;;7.10;;
5682;SDS011;2864;49.220;8.654;2022-07-23T03:47:55;10.17;;;8.03;;
5682;SDS011;2864;49.220;8.654;2022-07-23T03:50:21;9.20;;;7.07;;
5682;SDS011;2864;49.220;8.654;2022-07-23T03:52:47;8.27;;;7.47;;
5682;SDS011;2864;49.220;8.654;2022-07-23T03:55:13;11.47;;;7.80;;
5682;SDS011;2864;49.220;8.654;2022-07-23T03:57:40;8.37;;;7.50;;
5682;SDS011;2864;49.220;8.654;2022-07-23T04:00:06;7.80;;;6.97;;
5682;SDS011;2864;49.220;8.654;2022-07-23T04:02:34;10.27;;;7.10;;
5682;SDS011;2864;49.220;8.654;2022-07-23T04:05:00;9.30;;;7.37;;
5682;SDS011;2864;49.220;8.654;2022-07-23T04:07:26;9.10;;;7.47;;
5682;SDS011;2864;49.220;8.654;2022-07-23T04:09:52;8.57;;;7.77;;
5682;SDS011;2864;49.220;8.654;2022-07-23T04:12:18;9.07;;;8.13;;
5682;SDS011;2864;49.220;8.654;2022-07-23T04:14:44;9.50;;;7.23;;
5682;SDS011;2864;49.220;8.654;2022-07-23T04:17:10;9.40;;;7.63;;
5682;SDS011;2864;49.220;8.654;2022-07-23T04:19:36;8.17;;;7.37;;
5682;SDS011;2864;49.220;8.654;2022-07-23T04:22:06;8.97;;;7.63;;
5682;SDS011;2864;49.220;8.654;2022-07-23T04:24:32;9.70;;;8.00;;
5682;SDS011;2864;49.220;8.654;2022-07-23T04:26:58;8.47;;;7.23;;
5682;SDS011;2864;49.220;8.654;2022-07-23T04:29:24;10.27;;;7.30;;
5682;SDS011;2864;49.220;8.654;2022-07-23T04:31:50;9.40;;;8.00;;
5682;SDS011;2864;49.220;8.654;2022-07-23T04:34:16;9.60;;;7.40;;
5682;SDS011;2864;49.220;8.654;2022-07-23T04:36:42;8.53;;;7.63;;
5682;SDS011;2864;49.220;8.654;2022-07-23T04:39:08;11.23;;;7.40;;
5682;SDS011;2864;49.220;8.654;2022-07-23T04:41:34;8.10;;;7.13;;
5682;SDS011;2864;49.220;8.654;2022-07-23T04:44:01;11.83;;;8.17;;
5682;SDS011;2864;49.220;8.654;2022-07-23T04:46:27;8.33;;;7.37;;
5682;SDS011;2864;49.220;8.654;2022-07-23T04:48:53;8.10;;;6.90;;
5682;SDS011;2864;49.220;8.654;2022-07-23T04:51:19;8.80;;;7.63;;
5682;SDS011;2864;49.220;8.654;2022-07-23T04:53:44;13.87;;;7.70;;
5682;SDS011;2864;49.220;8.654;2022-07-23T04:56:10;7.73;;;6.77;;
5682;SDS011;2864;49.220;8.654;2022-07-23T04:58:36;10.33;;;6.93;;
5682;SDS011;2864;49.220;8.654;2022-07-23T05:01:02;8.00;;;6.83;;
5682;SDS011;2864;49.220;8.654;2022-07-23T05:03:28;7.67;;;6.47;;
5682;SDS011;2864;49.220;8.654;2022-07-23T05:05:54;8.93;;;7.03;;
5682;SDS011;2864;49.220;8.654;2022-07-23T05:08:20;7.73;;;6.43;;
5682;SDS011;2864;49.220;8.654;2022-07-23T05:10:46;9.53;;;7.10;;
5682;SDS011;2864;49.220;8.654;2022-07-23T05:13:14;8.50;;;7.70;;
5682;SDS011;2864;49.220;8.654;2022-07-23T05:15:40;11.07;;;8.90;;
5682;SDS011;2864;49.220;8.654;2022-07-23T05:18:06;9.97;;;8.77;;
5682;SDS011;2864;49.220;8.654;2022-07-23T05:20:32;10.63;;;7.87;;
5682;SDS011;2864;49.220;8.654;2022-07-23T05:22:58;9.70;;;8.60;;
5682;SDS011;2864;49.220;8.654;2022-07-23T05:25:24;15.00;;;9.00;;
5682;SDS011;2864;49.220;8.654;2022-07-23T05:27:50;14.07;;;9.10;;
5682;SDS011;2864;49.220;8.654;2022-07-23T05:30:16;14.23;;;8.73;;
5682;SDS011;2864;49.220;8.654;2022-07-23T05:32:42;10.43;;;9.33;;
5682;SDS011;2864;49.220;8.654;2022-07-23T05:35:08;10.47;;;8.83;;
5682;SDS011;2864;49.220;8.654;2022-07-23T05:37:34;9.97;;;8.97;;
5682;SDS011;2864;49.220;8.654;2022-07-23T05:40:03;11.97;;;9.20;;
5682;SDS011;2864;49.220;8.654;2022-07-23T05:42:32;10.17;;;9.17;;
5682;SDS011;2864;49.220;8.654;2022-07-23T05:44:58;10.43;;;9.13;;
5682;SDS011;2864;49.220;8.654;2022-07-23T05:47:24;11.50;;;9.43;;
5682;SDS011;2864;49.220;8.654;2022-07-23T05:49:50;9.97;;;8.93;;
5682;SDS011;2864;49.220;8.654;2022-07-23T05:52:16;13.80;;;9.87;;
5682;SDS011;2864;49.220;8.654;2022-07-23T05:54:42;10.50;;;9.37;;
5682;SDS011;2864;49.220;8.654;2022-07-23T05:57:08;11.93;;;9.40;;
5682;SDS011;2864;49.220;8.654;2022-07-23T05:59:33;9.97;;;8.73;;
5682;SDS011;2864;49.220;8.654;2022-07-23T06:01:59;9.83;;;8.40;;
5682;SDS011;2864;49.220;8.654;2022-07-23T06:04:25;10.17;;;9.13;;
5682;SDS011;2864;49.220;8.654;2022-07-23T06:06:51;12.60;;;8.50;;
5682;SDS011;2864;49.220;8.654;2022-07-23T06:09:17;10.13;;;8.37;;
5682;SDS011;2864;49.220;8.654;2022-07-23T06:11:43;10.40;;;8.93;;
5682;SDS011;2864;49.220;8.654;2022-07-23T06:14:09;8.83;;;7.97;;
5682;SDS011;2864;49.220;8.654;2022-07-23T06:16:35;11.50;;;8.93;;
5682;SDS011;2864;49.220;8.654;2022-07-23T06:19:01;9.77;;;8.77;;
5682;SDS011;2864;49.220;8.654;2022-07-23T06:21:27;11.00;;;9.33;;
5682;SDS011;2864;49.220;8.654;2022-07-23T06:23:52;9.80;;;8.53;;
5682;SDS011;2864;49.220;8.654;2022-07-23T06:26:18;14.30;;;8.63;;
5682;SDS011;2864;49.220;8.654;2022-07-23T06:28:44;12.97;;;9.57;;
5682;SDS011;2864;49.220;8.654;2022-07-23T06:31:10;10.83;;;9.07;;
5682;SDS011;2864;49.220;8.654;2022-07-23T07:04:41;10.73;;;9.63;;
5682;SDS011;2864;49.220;8.654;2022-07-23T07:07:07;9.73;;;8.77;;
5682;SDS011;2864;49.220;8.654;2022-07-23T07:09:39;10.00;;;9.03;;
5682;SDS011;2864;49.220;8.654;2022-07-23T07:12:05;10.57;;;8.73;;
5682;SDS011;2864;49.220;8.654;2022-07-23T07:14:32;11.77;;;9.50;;
5682;SDS011;2864;49.220;8.654;2022-07-23T07:16:58;14.13;;;8.83;;
5682;SDS011;2864;49.220;8.654;2022-07-23T07:19:24;12.33;;;9.53;;
5682;SDS011;2864;49.220;8.654;2022-07-23T07:21:50;10.60;;;8.93;;
5682;SDS011;2864;49.220;8.654;2022-07-23T07:24:16;15.00;;;8.80;;
5682;SDS011;2864;49.220;8.654;2022-07-23T07:26:42;10.60;;;8.80;;
5682;SDS011;2864;49.220;8.654;2022-07-23T07:29:08;13.13;;;9.77;;
5682;SDS011;2864;49.220;8.654;2022-07-23T07:31:34;12.20;;;8.70;;
5682;SDS011;2864;49.220;8.654;2022-07-23T07:34:00;11.10;;;9.00;;
5682;SDS011;2864;49.220;8.654;2022-07-23T07:36:26;10.03;;;9.03;;
5682;SDS011;2864;49.220;8.654;2022-07-23T07:38:52;11.50;;;8.77;;
5682;SDS011;2864;49.220;8.654;2022-07-23T07:41:18;9.80;;;7.90;;
5682;SDS011;2864;49.220;8.654;2022-07-23T07:43:47;9.83;;;8.83;;
5682;SDS011;2864;49.220;8.654;2022-07-23T07:46:14;10.70;;;9.20;;
5682;SDS011;2864;49.220;8.654;2022-07-23T07:48:39;12.47;;;9.13;;
5682;SDS011;2864;49.220;8.654;2022-07-23T07:51:05;10.20;;;9.17;;
5682;SDS011;2864;49.220;8.654;2022-07-23T07:53:31;11.80;;;9.20;;
5682;SDS011;2864;49.220;8.654;2022-07-23T07:55:58;11.37;;;9.10;;
5682;SDS011;2864;49.220;8.654;2022-07-23T07:58:27;12.80;;;10.10;;
5682;SDS011;2864;49.220;8.654;2022-07-23T08:00:55;12.73;;;10.43;;
5682;SDS011;2864;49.220;8.654;2022-07-23T08:03:25;11.93;;;10.60;;
5682;SDS011;2864;49.220;8.654;2022-07-23T08:05:51;13.20;;;10.23;;
5682;SDS011;2864;49.220;8.654;2022-07-23T08:08:17;11.80;;;10.50;;
5682;SDS011;2864;49.220;8.654;2022-07-23T08:10:43;14.37;;;11.30;;
5682;SDS011;2864;49.220;8.654;2022-07-23T08:13:12;12.53;;;10.53;;
5682;SDS011;2864;49.220;8.654;2022-07-23T08:15:39;13.23;;;11.53;;
5682;SDS011;2864;49.220;8.654;2022-07-23T08:18:05;13.87;;;10.97;;
5682;SDS011;2864;49.220;8.654;2022-07-23T08:20:31;13.13;;;10.53;;
5682;SDS011;2864;49.220;8.654;2022-07-23T08:23:05;13.23;;;11.00;;
5682;SDS011;2864;49.220;8.654;2022-07-23T08:25:33;11.93;;;10.10;;
5682;SDS011;2864;49.220;8.654;2022-07-23T08:28:00;11.73;;;10.33;;
5682;SDS011;2864;49.220;8.654;2022-07-23T08:30:27;12.33;;;11.03;;
5682;SDS011;2864;49.220;8.654;2022-07-23T08:32:54;12.40;;;10.93;;
5682;SDS011;2864;49.220;8.654;2022-07-23T08:35:25;13.03;;;10.93;;
5682;SDS011;2864;49.220;8.654;2022-07-23T08:37:51;12.27;;;11.00;;
5682;SDS011;2864;49.220;8.654;2022-07-23T08:40:17;13.83;;;11.00;;
5682;SDS011;2864;49.220;8.654;2022-07-23T08:42:44;11.90;;;10.67;;
5682;SDS011;2864;49.220;8.654;2022-07-23T08:45:11;13.30;;;10.50;;
5682;SDS011;2864;49.220;8.654;2022-07-23T08:47:38;11.20;;;9.70;;
5682;SDS011;2864;49.220;8.654;2022-07-23T08:50:04;14.57;;;11.40;;
5682;SDS011;2864;49.220;8.654;2022-07-23T08:52:32;12.90;;;9.80;;
5682;SDS011;2864;49.220;8.654;2022-07-23T08:54:58;9.80;;;8.80;;
5682;SDS011;2864;49.220;8.654;2022-07-23T08:57:24;13.63;;;9.90;;
5682;SDS011;2864;49.220;8.654;2022-07-23T08:59:50;12.23;;;9.57;;
5682;SDS011;2864;49.220;8.654;2022-07-23T09:02:16;11.63;;;9.57;;
5682;SDS011;2864;49.220;8.654;2022-07-23T09:04:42;12.93;;;10.87;;
5682;SDS011;2864;49.220;8.654;2022-07-23T09:07:08;12.73;;;10.17;;
5682;SDS011;2864;49.220;8.654;2022-07-23T09:09:34;11.27;;;10.13;;
5682;SDS011;2864;49.220;8.654;2022-07-23T09:12:05;11.73;;;9.97;;
5682;SDS011;2864;49.220;8.654;2022-07-23T09:14:42;10.80;;;9.70;;
5682;SDS011;2864;49.220;8.654;2022-07-23T09:17:15;11.57;;;10.37;;
5682;SDS011;2864;49.220;8.654;2022-07-23T09:19:43;12.20;;;10.00;;
5682;SDS011;2864;49.220;8.654;2022-07-23T09:22:22;12.10;;;9.32;;
5682;SDS011;2864;49.220;8.654;2022-07-23T09:25:05;11.23;;;10.10;;
5682;SDS011;2864;49.220;8.654;2022-07-23T09:27:47;12.40;;;9.95;;
5682;SDS011;2864;49.220;8.654;2022-07-23T09:30:18;12.90;;;10.40;;
5682;SDS011;2864;49.220;8.654;2022-07-23T09:32:44;11.43;;;10.07;;
5682;SDS011;2864;49.220;8.654;2022-07-23T09:35:10;11.52;;;10.30;;
5682;SDS011;2864;49.220;8.654;2022-07-23T09:37:36;11.30;;;10.03;;
5682;SDS011;2864;49.220;8.654;2022-07-23T09:40:07;14.10;;;10.50;;
5682;SDS011;2864;49.220;8.654;2022-07-23T09:42:34;12.13;;;10.83;;
5682;SDS011;2864;49.220;8.654;2022-07-23T09:45:00;12.47;;;10.77;;
5682;SDS011;2864;49.220;8.654;2022-07-23T09:47:27;13.53;;;12.13;;
5682;SDS011;2864;49.220;8.654;2022-07-23T09:50:07;14.50;;;11.10;;
5682;SDS011;2864;49.220;8.654;2022-07-23T09:52:35;12.30;;;11.10;;
5682;SDS011;2864;49.220;8.654;2022-07-23T09:55:02;13.50;;;11.53;;
5682;SDS011;2864;49.220;8.654;2022-07-23T09:57:29;12.27;;;11.07;;
5682;SDS011;2864;49.220;8.654;2022-07-23T09:59:57;12.63;;;11.37;;
5682;SDS011;2864;49.220;8.654;2022-07-23T10:02:24;12.93;;;10.90;;
5682;SDS011;2864;49.220;8.654;2022-07-23T10:04:50;11.60;;;10.40;;
5682;SDS011;2864;49.220;8.654;2022-07-23T10:07:18;12.23;;;10.20;;
5682;SDS011;2864;49.220;8.654;2022-07-23T10:09:46;11.37;;;9.97;;
5682;SDS011;2864;49.220;8.654;2022-07-23T10:12:13;10.37;;;8.83;;
5682;SDS011;2864;49.220;8.654;2022-07-23T10:14:56;10.10;;;9.13;;
5682;SDS011;2864;49.220;8.654;2022-07-23T10:17:22;11.25;;;9.20;;
5682;SDS011;2864;49.220;8.654;2022-07-23T10:19:48;14.73;;;9.00;;
5682;SDS011;2864;49.220;8.654;2022-07-23T10:22:18;13.18;;;8.80;;
5682;SDS011;2864;49.220;8.654;2022-07-23T10:27:18;10.35;;;7.90;;
5682;SDS011;2864;49.220;8.654;2022-07-23T10:29:51;8.90;;;8.00;;
5682;SDS011;2864;49.220;8.654;2022-07-23T10:32:25;10.13;;;9.00;;
5682;SDS011;2864;49.220;8.654;2022-07-23T10:35:06;9.57;;;8.30;;
5682;SDS011;2864;49.220;8.654;2022-07-23T10:37:34;8.98;;;8.07;;
5682;SDS011;2864;49.220;8.654;2022-07-23T10:40:08;10.35;;;7.78;;
5682;SDS011;2864;49.220;8.654;2022-07-23T10:42:34;8.98;;;7.55;;
5682;SDS011;2864;49.220;8.654;2022-07-23T10:45:01;6.88;;;6.28;;
5682;SDS011;2864;49.220;8.654;2022-07-23T10:47:28;7.90;;;6.70;;
5682;SDS011;2864;49.220;8.654;2022-07-23T10:53:16;7.85;;;7.03;;
5682;SDS011;2864;49.220;8.654;2022-07-23T10:55:43;9.00;;;6.88;;
5682;SDS011;2864;49.220;8.654;2022-07-23T10:58:17;6.60;;;5.90;;
5682;SDS011;2864;49.220;8.654;2022-07-23T11:00:43;9.68;;;6.53;;
5682;SDS011;2864;49.220;8.654;2022-07-23T11:05:54;7.40;;;6.55;;
5682;SDS011;2864;49.220;8.654;2022-07-23T11:08:20;7.82;;;6.97;;
5682;SDS011;2864;49.220;8.654;2022-07-23T11:10:53;9.65;;;7.43;;
5682;SDS011;2864;49.220;8.654;2022-07-23T11:37:03;9.20;;;6.80;;
5682;SDS011;2864;49.220;8.654;2022-07-23T11:39:30;8.75;;;7.22;;
5682;SDS011;2864;49.220;8.654;2022-07-23T11:41:57;7.05;;;6.35;;
5682;SDS011;2864;49.220;8.654;2022-07-23T11:44:34;8.18;;;6.55;;
5682;SDS011;2864;49.220;8.654;2022-07-23T11:47:07;7.18;;;6.35;;
5682;SDS011;2864;49.220;8.654;2022-07-23T11:49:36;7.68;;;6.68;;
5682;SDS011;2864;49.220;8.654;2022-07-23T11:52:09;7.25;;;6.30;;
5682;SDS011;2864;49.220;8.654;2022-07-23T11:54:49;8.00;;;6.10;;
5682;SDS011;2864;49.220;8.654;2022-07-23T11:57:18;8.40;;;6.25;;
5682;SDS011;2864;49.220;8.654;2022-07-23T11:59:53;7.30;;;6.60;;
5682;SDS011;2864;49.220;8.654;2022-07-23T12:02:20;7.60;;;6.72;;
5682;SDS011;2864;49.220;8.654;2022-07-23T12:04:47;7.57;;;6.85;;
5682;SDS011;2864;49.220;8.654;2022-07-23T12:07:28;8.60;;;7.05;;
5682;SDS011;2864;49.220;8.654;2022-07-23T12:09:55;8.88;;;7.95;;
5682;SDS011;2864;49.220;8.654;2022-07-23T12:12:21;9.40;;;7.85;;
5682;SDS011;2864;49.220;8.654;2022-07-23T12:14:57;9.00;;;7.32;;
5682;SDS011;2864;49.220;8.654;2022-07-23T12:17:30;11.00;;;7.82;;
5682;SDS011;2864;49.220;8.654;2022-07-23T12:19:57;7.78;;;6.88;;
5682;SDS011;2864;49.220;8.654;2022-07-23T12:22:23;8.95;;;7.05;;
5682;SDS011;2864;49.220;8.654;2022-07-23T12:24:54;8.00;;;7.20;;
5682;SDS011;2864;49.220;8.654;2022-07-23T12:27:22;7.70;;;6.13;;
5682;SDS011;2864;49.220;8.654;2022-07-23T12:29:49;10.13;;;6.63;;
5682;SDS011;2864;49.220;8.654;2022-07-23T12:32:26;7.68;;;6.70;;
5682;SDS011;2864;49.220;8.654;2022-07-23T12:35:05;15.90;;;6.90;;
5682;SDS011;2864;49.220;8.654;2022-07-23T12:37:36;8.73;;;6.30;;
5682;SDS011;2864;49.220;8.654;2022-07-23T12:42:49;9.65;;;5.78;;
5682;SDS011;2864;49.220;8.654;2022-07-23T12:45:16;8.48;;;6.15;;
5682;SDS011;2864;49.220;8.654;2022-07-23T12:47:56;7.57;;;6.85;;
5682;SDS011;2864;49.220;8.654;2022-07-23T12:53:15;8.75;;;6.22;;
5682;SDS011;2864;49.220;8.654;2022-07-23T12:55:41;6.70;;;6.10;;
5682;SDS011;2864;49.220;8.654;2022-07-23T12:58:09;8.30;;;6.30;;
5682;SDS011;2864;49.220;8.654;2022-07-23T13:06:04;7.18;;;6.47;;
5682;SDS011;2864;49.220;8.654;2022-07-23T13:08:31;8.55;;;6.63;;
5682;SDS011;2864;49.220;8.654;2022-07-23T13:10:58;7.63;;;6.35;;
5682;SDS011;2864;49.220;8.654;2022-07-23T13:13:25;7.90;;;6.20;;
5682;SDS011;2864;49.220;8.654;2022-07-23T13:15:51;8.30;;;6.28;;
5682;SDS011;2864;49.220;8.654;2022-07-23T13:18:18;9.63;;;5.88;;
5682;SDS011;2864;49.220;8.654;2022-07-23T13:20:45;6.97;;;6.38;;
5682;SDS011;2864;49.220;8.654;2022-07-23T13:23:11;8.82;;;6.30;;
5682;SDS011;2864;49.220;8.654;2022-07-23T13:25:37;7.80;;;6.22;;
5682;SDS011;2864;49.220;8.654;2022-07-23T13:28:03;7.13;;;6.43;;
5682;SDS011;2864;49.220;8.654;2022-07-23T13:30:29;7.43;;;6.00;;
5682;SDS011;2864;49.220;8.654;2022-07-23T13:32:55;7.60;;;6.00;;
5682;SDS011;2864;49.220;8.654;2022-07-23T13:35:21;7.93;;;6.50;;
5682;SDS011;2864;49.220;8.654;2022-07-23T13:37:48;7.18;;;6.47;;
5682;SDS011;2864;49.220;8.654;2022-07-23T13:40:14;8.55;;;6.30;;
5682;SDS011;2864;49.220;8.654;2022-07-23T13:42:40;9.13;;;6.47;;
5682;SDS011;2864;49.220;8.654;2022-07-23T13:45:06;8.13;;;6.43;;
5682;SDS011;2864;49.220;8.654;2022-07-23T13:47:32;8.48;;;6.30;;
5682;SDS011;2864;49.220;8.654;2022-07-23T13:49:58;7.25;;;6.65;;
5682;SDS011;2864;49.220;8.654;2022-07-23T13:52:24;7.43;;;6.72;;
5682;SDS011;2864;49.220;8.654;2022-07-23T13:54:50;8.32;;;6.78;;
5682;SDS011;2864;49.220;8.654;2022-07-23T13:57:16;7.45;;;6.75;;
5682;SDS011;2864;49.220;8.654;2022-07-23T13:59:42;7.32;;;6.63;;
5682;SDS011;2864;49.220;8.654;2022-07-23T14:02:08;8.18;;;6.53;;
5682;SDS011;2864;49.220;8.654;2022-07-23T14:04:34;8.32;;;6.30;;
5682;SDS011;2864;49.220;8.654;2022-07-23T14:07:00;8.63;;;6.78;;
5682;SDS011;2864;49.220;8.654;2022-07-23T14:09:26;8.43;;;6.88;;
5682;SDS011;2864;49.220;8.654;2022-07-23T14:11:53;7.20;;;6.50;;
5682;SDS011;2864;49.220;8.654;2022-07-23T14:14:19;8.38;;;6.70;;
5682;SDS011;2864;49.220;8.654;2022-07-23T14:16:45;7.10;;;6.45;;
5682;SDS011;2864;49.220;8.654;2022-07-23T14:19:11;8.77;;;6.78;;
5682;SDS011;2864;49.220;8.654;2022-07-23T14:21:37;10.38;;;6.55;;
5682;SDS011;2864;49.220;8.654;2022-07-23T14:24:03;12.70;;;7.07;;
5682;SDS011;2864;49.220;8.654;2022-07-23T14:26:29;10.57;;;6.57;;
5682;SDS011;2864;49.220;8.654;2022-07-23T14:28:56;8.95;;;6.95;;
5682;SDS011;2864;49.220;8.654;2022-07-23T14:31:22;7.57;;;6.70;;
5682;SDS011;2864;49.220;8.654;2022-07-23T14:33:48;7.68;;;6.88;;
5682;SDS011;2864;49.220;8.654;2022-07-23T14:36:14;7.65;;;6.90;;
5682;SDS011;2864;49.220;8.654;2022-07-23T14:38:40;9.05;;;6.68;;
5682;SDS011;2864;49.220;8.654;2022-07-23T14:41:06;7.45;;;6.63;;
5682;SDS011;2864;49.220;8.654;2022-07-23T14:43:33;7.65;;;6.30;;
5682;SDS011;2864;49.220;8.654;2022-07-23T14:45:59;9.63;;;6.53;;
5682;SDS011;2864;49.220;8.654;2022-07-23T14:48:25;8.13;;;6.88;;
5682;SDS011;2864;49.220;8.654;2022-07-23T14:50:51;7.90;;;6.85;;
5682;SDS011;2864;49.220;8.654;2022-07-23T14:53:17;9.93;;;6.88;;
5682;SDS011;2864;49.220;8.654;2022-07-23T14:55:43;11.20;;;6.97;;
5682;SDS011;2864;49.220;8.654;2022-07-23T14:58:09;8.80;;;6.82;;
5682;SDS011;2864;49.220;8.654;2022-07-23T15:00:35;15.57;;;7.85;;
5682;SDS011;2864;49.220;8.654;2022-07-23T15:03:01;8.20;;;7.40;;
5682;SDS011;2864;49.220;8.654;2022-07-23T15:05:26;9.93;;;7.25;;
5682;SDS011;2864;49.220;8.654;2022-07-23T15:07:53;11.38;;;8.13;;
5682;SDS011;2864;49.220;8.654;2022-07-23T15:10:19;12.50;;;7.80;;
5682;SDS011;2864;49.220;8.654;2022-07-23T15:12:45;9.60;;;7.97;;
5682;SDS011;2864;49.220;8.654;2022-07-23T15:15:11;10.55;;;7.88;;
5682;SDS011;2864;49.220;8.654;2022-07-23T15:17:37;9.63;;;7.80;;
5682;SDS011;2864;49.220;8.654;2022-07-23T15:20:03;9.45;;;8.27;;
5682;SDS011;2864;49.220;8.654;2022-07-23T15:22:29;9.20;;;8.25;;
5682;SDS011;2864;49.220;8.654;2022-07-23T15:24:55;10.95;;;7.28;;
5682;SDS011;2864;49.220;8.654;2022-07-23T15:27:22;8.85;;;7.47;;
5682;SDS011;2864;49.220;8.654;2022-07-23T15:29:48;10.32;;;7.18;;
5682;SDS011;2864;49.220;8.654;2022-07-23T15:32:14;6.93;;;6.28;;
5682;SDS011;2864;49.220;8.654;2022-07-23T15:34:40;8.32;;;6.85;;
5682;SDS011;2864;49.220;8.654;2022-07-23T15:37:06;7.57;;;6.88;;
5682;SDS011;2864;49.220;8.654;2022-07-23T15:39:31;7.22;;;6.50;;
5682;SDS011;2864;49.220;8.654;2022-07-23T15:41:58;8.65;;;6.57;;
5682;SDS011;2864;49.220;8.654;2022-07-23T15:44:24;8.80;;;6.60;;
5682;SDS011;2864;49.220;8.654;2022-07-23T15:46:50;6.72;;;6.13;;
5682;SDS011;2864;49.220;8.654;2022-07-23T15:49:16;7.30;;;6.60;;
5682;SDS011;2864;49.220;8.654;2022-07-23T15:51:43;7.07;;;6.38;;
5682;SDS011;2864;49.220;8.654;2022-07-23T15:54:09;8.77;;;6.15;;
5682;SDS011;2864;49.220;8.654;2022-07-23T15:56:35;6.57;;;6.00;;
5682;SDS011;2864;49.220;8.654;2022-07-23T15:59:01;6.55;;;5.95;;
5682;SDS011;2864;49.220;8.654;2022-07-23T16:01:27;7.60;;;5.97;;
5682;SDS011;2864;49.220;8.654;2022-07-23T16:03:56;9.48;;;6.50;;
5682;SDS011;2864;49.220;8.654;2022-07-23T16:06:25;8.75;;;6.50;;
5682;SDS011;2864;49.220;8.654;2022-07-23T16:08:51;7.75;;;6.03;;
5682;SDS011;2864;49.220;8.654;2022-07-23T16:11:17;7.25;;;6.25;;
5682;SDS011;2864;49.220;8.654;2022-07-23T16:13:43;7.53;;;6.55;;
5682;SDS011;2864;49.220;8.654;2022-07-23T16:16:10;6.82;;;6.03;;
5682;SDS011;2864;49.220;8.654;2022-07-23T16:18:37;7.00;;;6.30;;
5682;SDS011;2864;49.220;8.654;2022-07-23T16:21:03;6.88;;;6.15;;